Time;durP1;ratioP1;P1;durP2;ratioP2;P2;SDS_P1;SDS_P2;PMS_P1;PMS_P2;Temp;Humidity;BMP_temperature;BMP_pressure;BME280_temperature;BME280_humidity;BME280_pressure;Samples;Min_cycle;Max_cycle;Signal;HPM_P1;HPM_P2
2020/12/05 00:01:19;;;;;;;;;;;20.00;35.00;;;;;;491627;240;956;-77
2020/12/05 00:03:20;;;;;;;;;;;20.00;35.00;;;;;;491614;240;970;-77
2020/12/05 00:05:21;;;;;;;;;;;20.00;35.00;;;;;;491632;240;936;-77
2020/12/05 00:07:23;;;;;;;;;;;20.00;34.90;;;;;;491555;240;2176;-77
2020/12/05 00:09:24;;;;;;;;;;;20.00;34.80;;;;;;491607;240;1144;-77
2020/12/05 00:11:25;;;;;;;;;;;20.10;34.80;;;;;;491626;240;967;-77
2020/12/05 00:13:26;;;;;;;;;;;20.10;34.70;;;;;;491675;240;946;-77
2020/12/05 00:15:28;;;;;;;;;;;20.10;34.80;;;;;;491698;240;938;-77
2020/12/05 00:17:31;;;;;;;;;;;20.10;34.30;;;;;;491670;240;1042;-77
2020/12/05 00:19:30;;;;;;;;;;;20.00;34.80;;;;;;491685;240;2090;-77
2020/12/05 00:21:31;;;;;;;;;;;20.00;34.90;;;;;;491665;240;1078;-77
2020/12/05 00:23:33;;;;;;;;;;;20.00;34.80;;;;;;491653;240;1202;-77
2020/12/05 00:25:34;;;;;;;;;;;20.00;34.80;;;;;;491616;240;954;-78
2020/12/05 00:27:35;;;;;;;;;;;20.00;34.70;;;;;;491618;240;2172;-77
2020/12/05 00:29:37;;;;;;;;;;;20.00;34.80;;;;;;491642;240;1071;-78
2020/12/05 00:31:38;;;;;;;;;;;20.00;34.70;;;;;;491709;240;1092;-77
2020/12/05 00:33:39;;;;;;;;;;;20.00;34.50;;;;;;491756;240;1122;-77
2020/12/05 00:35:40;;;;;;;;;;;20.00;34.60;;;;;;491677;240;1154;-77
2020/12/05 00:37:42;;;;;;;;;;;20.00;34.70;;;;;;491746;240;1286;-77
2020/12/05 00:39:43;;;;;;;;;;;20.00;34.40;;;;;;491715;240;988;-77
2020/12/05 00:41:44;;;;;;;;;;;20.00;34.50;;;;;;491716;240;1117;-77
2020/12/05 00:43:45;;;;;;;;;;;20.00;34.60;;;;;;491690;240;1069;-77
2020/12/05 00:45:47;;;;;;;;;;;20.00;34.60;;;;;;491672;240;1126;-77
2020/12/05 00:47:48;;;;;;;;;;;20.00;34.50;;;;;;491666;240;2203;-77
2020/12/05 00:49:49;;;;;;;;;;;20.00;34.30;;;;;;491691;240;951;-77
2020/12/05 00:51:51;;;;;;;;;;;20.00;34.30;;;;;;491694;240;1107;-77
2020/12/05 00:53:52;;;;;;;;;;;20.00;34.20;;;;;;491684;240;1192;-77
2020/12/05 00:55:53;;;;;;;;;;;20.00;34.20;;;;;;491644;240;1232;-77
2020/12/05 00:57:54;;;;;;;;;;;20.10;34.30;;;;;;491673;240;954;-77
2020/12/05 00:59:56;;;;;;;;;;;20.10;34.10;;;;;;491691;240;969;-77
2020/12/05 01:01:57;;;;;;;;;;;20.00;34.10;;;;;;491748;240;1312;-77
2020/12/05 01:03:58;;;;;;;;;;;20.10;34.10;;;;;;491635;240;1067;-77
2020/12/05 01:06:00;;;;;;;;;;;20.10;34.10;;;;;;491595;240;1202;-77
2020/12/05 01:08:01;;;;;;;;;;;20.10;34.00;;;;;;491603;240;2192;-77
2020/12/05 01:10:02;;;;;;;;;;;20.10;34.00;;;;;;491751;240;1038;-77
2020/12/05 01:12:03;;;;;;;;;;;20.10;34.00;;;;;;491674;240;1201;-77
2020/12/05 01:14:05;;;;;;;;;;;20.10;34.00;;;;;;491706;240;991;-77
2020/12/05 01:16:06;;;;;;;;;;;20.20;33.80;;;;;;491695;240;1265;-77
2020/12/05 01:18:07;;;;;;;;;;;20.20;33.70;;;;;;491693;240;1011;-77
2020/12/05 01:20:08;;;;;;;;;;;20.20;34.00;;;;;;491717;240;1038;-77
2020/12/05 01:22:10;;;;;;;;;;;20.20;34.10;;;;;;491685;240;1178;-77
2020/12/05 01:24:11;;;;;;;;;;;20.10;33.90;;;;;;491703;240;1227;-77
2020/12/05 01:26:12;;;;;;;;;;;20.10;34.20;;;;;;491621;240;1152;-77
2020/12/05 01:28:14;;;;;;;;;;;20.10;34.40;;;;;;491640;240;2179;-77
2020/12/05 01:30:15;;;;;;;;;;;20.10;34.30;;;;;;491640;240;1510;-77
2020/12/05 01:32:16;;;;;;;;;;;20.10;34.30;;;;;;491679;240;1318;-77
2020/12/05 01:34:17;;;;;;;;;;;20.10;34.40;;;;;;491631;240;982;-77
2020/12/05 01:36:19;;;;;;;;;;;20.20;34.30;;;;;;491733;240;1195;-77
2020/12/05 01:38:20;;;;;;;;;;;20.20;34.20;;;;;;491607;240;1187;-77
2020/12/05 01:40:21;;;;;;;;;;;20.30;33.80;;;;;;491625;240;1226;-76
2020/12/05 01:42:23;;;;;;;;;;;20.30;34.00;;;;;;491599;240;981;-77
2020/12/05 01:44:24;;;;;;;;;;;20.30;34.20;;;;;;491685;240;961;-77
2020/12/05 01:46:25;;;;;;;;;;;20.40;34.20;;;;;;491630;240;1171;-77
2020/12/05 01:48:27;;;;;;;;;;;20.40;34.20;;;;;;491666;239;2176;-77
2020/12/05 01:50:28;;;;;;;;;;;20.40;34.30;;;;;;491720;240;1052;-77
2020/12/05 01:52:29;;;;;;;;;;;20.30;34.30;;;;;;491750;240;1086;-77
2020/12/05 01:54:31;;;;;;;;;;;20.30;34.40;;;;;;491636;240;1197;-77
2020/12/05 01:56:32;;;;;;;;;;;20.30;34.40;;;;;;491608;240;1233;-78
2020/12/05 01:58:33;;;;;;;;;;;20.30;34.40;;;;;;491646;240;987;-77
2020/12/05 02:00:34;;;;;;;;;;;20.30;34.30;;;;;;491621;240;941;-77
2020/12/05 02:02:36;;;;;;;;;;;20.30;34.40;;;;;;491604;240;1188;-77
2020/12/05 02:04:39;;;;;;;;;;;20.30;34.40;;;;;;491650;240;996;-77
2020/12/05 02:06:41;;;;;;;;;;;20.20;34.20;;;;;;491611;240;1028;-77
2020/12/05 02:08:42;;;;;;;;;;;20.30;34.30;;;;;;491633;240;2168;-77
2020/12/05 02:10:43;;;;;;;;;;;20.30;34.40;;;;;;491634;240;939;-77
2020/12/05 02:12:45;;;;;;;;;;;20.20;34.30;;;;;;491659;240;939;-77
2020/12/05 02:14:46;;;;;;;;;;;20.30;34.30;;;;;;491650;240;1061;-77
2020/12/05 02:16:47;;;;;;;;;;;20.30;34.30;;;;;;491642;240;1145;-77
2020/12/05 02:18:49;;;;;;;;;;;20.30;34.20;;;;;;491599;240;1042;-77
2020/12/05 02:20:50;;;;;;;;;;;20.20;34.20;;;;;;491671;240;990;-77
2020/12/05 02:22:51;;;;;;;;;;;20.20;34.20;;;;;;491647;240;1031;-76
2020/12/05 02:24:53;;;;;;;;;;;20.20;34.20;;;;;;491660;240;1285;-78
2020/12/05 02:26:54;;;;;;;;;;;20.30;34.20;;;;;;491683;240;976;-78
2020/12/05 02:28:55;;;;;;;;;;;20.20;34.10;;;;;;491671;240;2188;-77
2020/12/05 02:30:56;;;;;;;;;;;20.30;34.10;;;;;;491621;240;1066;-77
2020/12/05 02:32:58;;;;;;;;;;;20.20;34.10;;;;;;491652;240;948;-77
2020/12/05 02:34:59;;;;;;;;;;;20.20;34.20;;;;;;491651;240;943;-77
2020/12/05 02:37:01;;;;;;;;;;;20.20;34.10;;;;;;491659;240;932;-77
2020/12/05 02:39:02;;;;;;;;;;;20.20;34.10;;;;;;491712;240;1236;-77
2020/12/05 02:41:03;;;;;;;;;;;20.10;34.10;;;;;;491646;240;1060;-77
2020/12/05 02:43:04;;;;;;;;;;;20.20;34.10;;;;;;491611;240;956;-77
2020/12/05 02:45:06;;;;;;;;;;;20.20;34.00;;;;;;491639;240;959;-77
2020/12/05 02:47:07;;;;;;;;;;;20.20;34.10;;;;;;491607;240;982;-77
2020/12/05 02:49:08;;;;;;;;;;;20.20;34.10;;;;;;491623;240;2188;-76
2020/12/05 02:51:09;;;;;;;;;;;20.20;34.20;;;;;;491663;240;966;-77
2020/12/05 02:53:11;;;;;;;;;;;20.20;33.70;;;;;;491654;240;988;-77
2020/12/05 02:55:12;;;;;;;;;;;20.20;34.30;;;;;;491783;240;1211;-77
2020/12/05 02:57:13;;;;;;;;;;;20.20;34.30;;;;;;491627;240;964;-77
2020/12/05 02:59:15;;;;;;;;;;;20.20;34.30;;;;;;491668;240;923;-77
2020/12/05 03:01:16;;;;;;;;;;;20.20;34.30;;;;;;491705;240;1240;-77
2020/12/05 03:03:17;;;;;;;;;;;20.20;34.30;;;;;;491653;240;953;-77
2020/12/05 03:05:18;;;;;;;;;;;20.10;34.20;;;;;;491663;240;999;-77
2020/12/05 03:07:20;;;;;;;;;;;20.20;34.30;;;;;;491656;240;936;-77
2020/12/05 03:09:21;;;;;;;;;;;20.10;34.20;;;;;;491687;240;2176;-78
2020/12/05 03:11:22;;;;;;;;;;;20.10;34.30;;;;;;491633;240;1070;-77
2020/12/05 03:13:24;;;;;;;;;;;20.20;34.20;;;;;;491622;240;1010;-77
2020/12/05 03:15:25;;;;;;;;;;;20.20;34.20;;;;;;491621;240;1030;-77
2020/12/05 03:17:26;;;;;;;;;;;20.20;34.10;;;;;;491635;240;963;-77
2020/12/05 03:19:27;;;;;;;;;;;20.20;34.10;;;;;;491624;240;955;-77
2020/12/05 03:21:29;;;;;;;;;;;20.10;34.20;;;;;;491609;240;969;-77
2020/12/05 03:23:30;;;;;;;;;;;20.10;34.10;;;;;;491715;240;954;-77
2020/12/05 03:25:31;;;;;;;;;;;20.10;34.20;;;;;;491607;240;1178;-77
2020/12/05 03:27:33;;;;;;;;;;;20.10;34.10;;;;;;491631;240;2199;-77
2020/12/05 03:29:34;;;;;;;;;;;20.20;34.10;;;;;;491650;240;987;-77
2020/12/05 03:31:50;;;;;;;;;;;20.10;34.00;;;;;;491666;240;977;-77
2020/12/05 03:33:50;;;;;;;;;;;20.10;34.10;;;;;;491678;240;2188;-77
2020/12/05 03:35:51;;;;;;;;;;;20.10;34.10;;;;;;491664;240;1089;-77
2020/12/05 03:37:52;;;;;;;;;;;20.10;34.00;;;;;;491623;240;990;-77
2020/12/05 03:39:53;;;;;;;;;;;20.10;34.00;;;;;;491638;240;1206;-77
2020/12/05 03:41:55;;;;;;;;;;;20.10;34.00;;;;;;491582;240;979;-77
2020/12/05 03:43:56;;;;;;;;;;;20.10;34.00;;;;;;491625;240;981;-77
2020/12/05 03:45:57;;;;;;;;;;;20.20;34.00;;;;;;491568;240;1121;-77
2020/12/05 03:47:58;;;;;;;;;;;20.20;34.00;;;;;;491672;240;2180;-77
2020/12/05 03:50:00;;;;;;;;;;;20.10;33.90;;;;;;491744;240;1054;-78
2020/12/05 03:52:01;;;;;;;;;;;20.10;33.90;;;;;;491718;240;1053;-77
2020/12/05 03:54:02;;;;;;;;;;;20.20;33.80;;;;;;491680;240;1088;-77
2020/12/05 03:56:04;;;;;;;;;;;20.30;33.90;;;;;;491675;240;1171;-77
2020/12/05 03:58:05;;;;;;;;;;;20.40;33.70;;;;;;491637;240;1125;-78
2020/12/05 04:00:06;;;;;;;;;;;20.50;33.70;;;;;;491697;240;981;-77
2020/12/05 04:02:07;;;;;;;;;;;20.60;33.60;;;;;;491707;240;1168;-77
2020/12/05 04:04:09;;;;;;;;;;;20.70;33.60;;;;;;491682;240;1083;-77
2020/12/05 04:06:12;;;;;;;;;;;20.80;33.60;;;;;;491642;240;1305;-77
2020/12/05 04:08:12;;;;;;;;;;;20.90;33.60;;;;;;491638;240;2180;-78
2020/12/05 04:10:13;;;;;;;;;;;21.00;33.60;;;;;;491634;240;1330;-78
2020/12/05 04:12:15;;;;;;;;;;;21.00;32.90;;;;;;491625;240;1218;-78
2020/12/05 04:14:16;;;;;;;;;;;21.00;33.60;;;;;;491703;240;940;-77
2020/12/05 04:16:17;;;;;;;;;;;21.10;33.70;;;;;;491601;240;1241;-77
2020/12/05 04:18:18;;;;;;;;;;;21.10;33.60;;;;;;491729;240;1165;-77
2020/12/05 04:20:20;;;;;;;;;;;21.10;33.60;;;;;;491579;240;1238;-77
2020/12/05 04:22:21;;;;;;;;;;;20.90;33.70;;;;;;491721;240;1124;-78
2020/12/05 04:24:22;;;;;;;;;;;20.90;33.90;;;;;;491647;240;1004;-77
2020/12/05 04:26:24;;;;;;;;;;;20.70;33.90;;;;;;491575;240;1219;-77
2020/12/05 04:28:25;;;;;;;;;;;20.60;34.00;;;;;;491706;240;2168;-77
2020/12/05 04:30:26;;;;;;;;;;;20.50;34.00;;;;;;491558;240;1197;-77
2020/12/05 04:32:27;;;;;;;;;;;20.40;34.00;;;;;;491598;240;1074;-77
2020/12/05 04:34:29;;;;;;;;;;;20.30;34.00;;;;;;491644;240;1103;-77
2020/12/05 04:36:30;;;;;;;;;;;20.30;33.90;;;;;;491625;240;1079;-77
2020/12/05 04:38:33;;;;;;;;;;;20.30;33.60;;;;;;491627;240;1055;-77
2020/12/05 04:40:34;;;;;;;;;;;20.20;33.70;;;;;;491702;240;1329;-77
2020/12/05 04:42:36;;;;;;;;;;;20.20;33.40;;;;;;491590;240;1078;-77
2020/12/05 04:44:37;;;;;;;;;;;20.20;33.40;;;;;;491618;240;1124;-77
2020/12/05 04:46:38;;;;;;;;;;;20.20;33.30;;;;;;491634;240;979;-77
2020/12/05 04:48:41;;;;;;;;;;;20.30;33.20;;;;;;491619;240;2191;-78
2020/12/05 04:50:41;;;;;;;;;;;20.30;33.20;;;;;;491633;240;2250;-77
2020/12/05 04:52:42;;;;;;;;;;;20.20;33.10;;;;;;491582;240;1136;-77
2020/12/05 04:54:43;;;;;;;;;;;20.20;33.10;;;;;;491640;240;1018;-77
2020/12/05 04:56:44;;;;;;;;;;;20.20;33.10;;;;;;491627;240;1176;-77
2020/12/05 04:58:46;;;;;;;;;;;20.20;33.00;;;;;;491805;240;1112;-77
2020/12/05 05:00:47;;;;;;;;;;;20.20;33.00;;;;;;491709;240;1097;-77
2020/12/05 05:02:48;;;;;;;;;;;20.20;33.00;;;;;;491739;240;1197;-77
2020/12/05 05:04:50;;;;;;;;;;;20.20;32.90;;;;;;491680;240;987;-77
2020/12/05 05:06:51;;;;;;;;;;;20.20;32.90;;;;;;491640;240;1080;-78
2020/12/05 05:08:52;;;;;;;;;;;20.20;32.80;;;;;;491711;240;2187;-77
2020/12/05 05:10:53;;;;;;;;;;;20.20;32.80;;;;;;491599;240;1351;-77
2020/12/05 05:12:55;;;;;;;;;;;20.20;32.90;;;;;;491587;240;1133;-77
2020/12/05 05:14:56;;;;;;;;;;;20.20;32.80;;;;;;491626;240;1650;-77
2020/12/05 05:16:57;;;;;;;;;;;20.10;33.10;;;;;;491588;240;1198;-77
2020/12/05 05:18:59;;;;;;;;;;;20.10;33.20;;;;;;491715;240;1093;-77
2020/12/05 05:21:00;;;;;;;;;;;20.20;33.20;;;;;;491622;240;1177;-77
2020/12/05 05:23:02;;;;;;;;;;;20.20;33.20;;;;;;491660;240;1041;-77
2020/12/05 05:25:02;;;;;;;;;;;20.20;33.30;;;;;;491677;240;2141;-77
2020/12/05 05:27:04;;;;;;;;;;;20.10;33.40;;;;;;491635;240;1415;-77
2020/12/05 05:29:05;;;;;;;;;;;20.10;33.50;;;;;;491669;240;2192;-77
2020/12/05 05:31:14;;;;;;;;;;;20.10;33.60;;;;;;491617;240;950;-77
2020/12/05 05:33:13;;;;;;;;;;;20.10;33.70;;;;;;491710;240;2024;-77
2020/12/05 05:35:14;;;;;;;;;;;20.10;33.80;;;;;;491623;240;1200;-77
2020/12/05 05:37:15;;;;;;;;;;;20.10;33.80;;;;;;491606;240;1592;-77
2020/12/05 05:39:18;;;;;;;;;;;20.20;33.80;;;;;;491630;240;1217;-77
2020/12/05 05:41:20;;;;;;;;;;;20.30;33.90;;;;;;491736;240;2247;-77
2020/12/05 05:43:19;;;;;;;;;;;20.40;33.80;;;;;;491795;240;2208;-77
2020/12/05 05:45:20;;;;;;;;;;;20.50;33.80;;;;;;491666;240;945;-77
2020/12/05 05:47:21;;;;;;;;;;;20.60;33.60;;;;;;491620;240;1051;-77
2020/12/05 05:49:23;;;;;;;;;;;20.70;33.60;;;;;;491628;240;2196;-77
2020/12/05 05:51:24;;;;;;;;;;;20.80;33.70;;;;;;491657;240;983;-77
2020/12/05 05:53:25;;;;;;;;;;;20.80;33.60;;;;;;491712;240;968;-77
2020/12/05 05:55:27;;;;;;;;;;;20.90;33.70;;;;;;491679;240;972;-77
2020/12/05 05:57:28;;;;;;;;;;;20.90;33.80;;;;;;491776;240;1106;-77
2020/12/05 05:59:29;;;;;;;;;;;20.90;33.90;;;;;;491718;240;960;-77
2020/12/05 06:01:30;;;;;;;;;;;20.90;33.90;;;;;;491710;240;1018;-77
2020/12/05 06:03:32;;;;;;;;;;;20.80;33.80;;;;;;491642;240;990;-78
2020/12/05 06:05:33;;;;;;;;;;;20.80;33.90;;;;;;491602;240;1066;-77
2020/12/05 06:07:34;;;;;;;;;;;20.90;33.80;;;;;;491570;240;939;-77
2020/12/05 06:09:36;;;;;;;;;;;20.90;33.80;;;;;;491598;240;2183;-77
2020/12/05 06:11:37;;;;;;;;;;;20.90;33.80;;;;;;491580;240;1325;-77
2020/12/05 06:13:38;;;;;;;;;;;20.70;33.80;;;;;;491597;240;955;-77
2020/12/05 06:15:39;;;;;;;;;;;20.70;33.80;;;;;;491591;240;971;-77
2020/12/05 06:17:41;;;;;;;;;;;20.50;33.80;;;;;;491605;240;1202;-77
2020/12/05 06:19:42;;;;;;;;;;;20.40;33.80;;;;;;491722;240;1190;-77
2020/12/05 06:21:43;;;;;;;;;;;20.40;33.80;;;;;;491567;240;1336;-77
2020/12/05 06:23:44;;;;;;;;;;;20.40;33.70;;;;;;491688;240;1218;-77
2020/12/05 06:25:46;;;;;;;;;;;20.40;33.60;;;;;;491569;240;1204;-77
2020/12/05 06:27:47;;;;;;;;;;;20.40;33.50;;;;;;491591;240;1286;-77
2020/12/05 06:29:48;;;;;;;;;;;20.30;33.50;;;;;;491601;240;2184;-77
2020/12/05 06:31:50;;;;;;;;;;;20.30;33.50;;;;;;491578;240;1194;-77
2020/12/05 06:33:51;;;;;;;;;;;20.30;33.40;;;;;;491625;240;1111;-77
2020/12/05 06:35:52;;;;;;;;;;;20.30;33.40;;;;;;491619;240;981;-77
2020/12/05 06:37:53;;;;;;;;;;;20.30;33.40;;;;;;491587;240;1099;-77
2020/12/05 06:39:55;;;;;;;;;;;20.20;33.40;;;;;;491602;240;1150;-77
2020/12/05 06:41:56;;;;;;;;;;;20.20;33.40;;;;;;491620;240;1328;-77
2020/12/05 06:43:57;;;;;;;;;;;20.20;33.30;;;;;;491736;240;961;-77
2020/12/05 06:45:58;;;;;;;;;;;20.10;33.20;;;;;;491646;240;927;-77
2020/12/05 06:48:00;;;;;;;;;;;20.10;33.30;;;;;;491643;240;948;-77
2020/12/05 06:50:01;;;;;;;;;;;20.10;33.40;;;;;;491636;240;2195;-77
2020/12/05 06:52:02;;;;;;;;;;;20.10;33.30;;;;;;491660;240;962;-77
2020/12/05 06:54:04;;;;;;;;;;;20.10;33.30;;;;;;491628;240;1064;-77
2020/12/05 06:56:05;;;;;;;;;;;20.10;33.40;;;;;;491653;240;1171;-77
2020/12/05 06:58:06;;;;;;;;;;;20.10;33.20;;;;;;491730;240;1290;-77
2020/12/05 07:00:07;;;;;;;;;;;20.10;33.20;;;;;;491705;240;1054;-77
2020/12/05 07:02:09;;;;;;;;;;;20.00;33.10;;;;;;491646;240;942;-77
2020/12/05 07:04:10;;;;;;;;;;;20.10;33.30;;;;;;491728;240;1139;-77
2020/12/05 07:06:11;;;;;;;;;;;20.10;33.20;;;;;;491570;240;980;-77
2020/12/05 07:08:13;;;;;;;;;;;20.00;33.20;;;;;;491596;240;955;-77
2020/12/05 07:10:14;;;;;;;;;;;20.00;33.30;;;;;;491687;240;2181;-77
2020/12/05 07:12:15;;;;;;;;;;;20.00;33.20;;;;;;491633;240;1185;-77
2020/12/05 07:14:16;;;;;;;;;;;19.90;33.20;;;;;;491622;240;1034;-77
2020/12/05 07:16:18;;;;;;;;;;;20.00;33.30;;;;;;491690;240;1153;-77
2020/12/05 07:18:19;;;;;;;;;;;20.10;33.20;;;;;;491660;240;975;-77
2020/12/05 07:20:20;;;;;;;;;;;19.90;33.20;;;;;;491656;240;1217;-77
2020/12/05 07:22:22;;;;;;;;;;;20.00;33.30;;;;;;491584;240;991;-77
2020/12/05 07:24:23;;;;;;;;;;;20.00;33.10;;;;;;491596;240;1221;-77
2020/12/05 07:26:24;;;;;;;;;;;20.00;33.10;;;;;;491587;240;954;-77
2020/12/05 07:28:26;;;;;;;;;;;20.00;33.20;;;;;;491642;240;1195;-78
2020/12/05 07:30:27;;;;;;;;;;;19.90;33.20;;;;;;491596;240;2188;-77
2020/12/05 07:32:28;;;;;;;;;;;19.90;33.20;;;;;;491678;240;942;-77
2020/12/05 07:34:29;;;;;;;;;;;20.00;33.30;;;;;;491675;240;934;-77
2020/12/05 07:36:31;;;;;;;;;;;19.90;33.20;;;;;;491646;240;954;-77
2020/12/05 07:38:32;;;;;;;;;;;19.90;33.30;;;;;;491719;240;1150;-77
2020/12/05 07:40:33;;;;;;;;;;;19.90;33.40;;;;;;491665;240;956;-77
2020/12/05 07:42:34;;;;;;;;;;;19.90;33.30;;;;;;491670;240;1121;-77
2020/12/05 07:44:36;;;;;;;;;;;19.80;33.30;;;;;;491662;240;985;-77
2020/12/05 07:46:37;;;;;;;;;;;19.80;33.40;;;;;;491617;240;1340;-77
2020/12/05 07:48:38;;;;;;;;;;;19.80;33.40;;;;;;491609;240;1095;-77
2020/12/05 07:50:40;;;;;;;;;;;19.90;33.30;;;;;;491567;240;2171;-77
2020/12/05 07:52:41;;;;;;;;;;;19.80;33.30;;;;;;491591;240;1198;-77
2020/12/05 07:54:42;;;;;;;;;;;19.80;33.40;;;;;;491609;240;1164;-77
2020/12/05 07:56:43;;;;;;;;;;;19.80;33.40;;;;;;491596;240;1121;-77
2020/12/05 07:58:46;;;;;;;;;;;19.90;33.40;;;;;;491664;240;1221;-77
2020/12/05 08:00:46;;;;;;;;;;;19.90;33.30;;;;;;491728;240;2006;-77
2020/12/05 08:02:48;;;;;;;;;;;19.80;33.30;;;;;;491636;240;1312;-77
2020/12/05 08:04:49;;;;;;;;;;;19.80;33.40;;;;;;491637;240;1110;-77
2020/12/05 08:06:50;;;;;;;;;;;19.80;33.40;;;;;;491581;240;1195;-77
2020/12/05 08:08:52;;;;;;;;;;;19.80;34.40;;;;;;491572;240;1079;-77
2020/12/05 08:10:53;;;;;;;;;;;19.90;34.30;;;;;;491632;240;2189;-78
2020/12/05 08:12:54;;;;;;;;;;;19.80;34.30;;;;;;491580;240;1231;-78
2020/12/05 08:14:55;;;;;;;;;;;19.90;34.40;;;;;;491655;240;1186;-77
2020/12/05 08:16:57;;;;;;;;;;;19.90;34.40;;;;;;491660;240;1489;-77
2020/12/05 08:18:58;;;;;;;;;;;19.90;34.40;;;;;;491631;240;934;-77
2020/12/05 08:21:00;;;;;;;;;;;19.90;34.30;;;;;;491585;240;1615;-77
2020/12/05 08:23:01;;;;;;;;;;;19.90;34.40;;;;;;491701;240;1181;-77
2020/12/05 08:25:03;;;;;;;;;;;19.90;34.50;;;;;;491608;240;1127;-77
2020/12/05 08:27:04;;;;;;;;;;;19.90;34.50;;;;;;491567;240;1253;-77
2020/12/05 08:29:05;;;;;;;;;;;19.90;34.50;;;;;;491679;240;1212;-77
2020/12/05 08:31:06;;;;;;;;;;;19.90;34.30;;;;;;491587;240;2195;-77
2020/12/05 08:33:08;;;;;;;;;;;19.80;34.20;;;;;;491707;240;1103;-77
2020/12/05 08:35:09;;;;;;;;;;;19.80;34.10;;;;;;491651;240;1007;-77
2020/12/05 08:37:10;;;;;;;;;;;19.70;34.20;;;;;;491654;240;1459;-77
2020/12/05 08:39:12;;;;;;;;;;;19.80;34.70;;;;;;491670;240;1164;-77
2020/12/05 08:41:13;;;;;;;;;;;19.80;34.60;;;;;;491810;240;1069;-77
2020/12/05 08:43:14;;;;;;;;;;;19.80;34.50;;;;;;491653;240;1204;-77
2020/12/05 08:45:15;;;;;;;;;;;19.80;34.50;;;;;;491657;240;969;-77
2020/12/05 08:47:17;;;;;;;;;;;19.70;34.50;;;;;;491674;240;1222;-77
2020/12/05 08:49:18;;;;;;;;;;;19.80;34.40;;;;;;491710;240;1191;-77
2020/12/05 08:51:19;;;;;;;;;;;19.80;34.30;;;;;;491651;240;2184;-77
2020/12/05 08:53:20;;;;;;;;;;;19.80;34.30;;;;;;491599;240;976;-77
2020/12/05 08:55:22;;;;;;;;;;;19.80;34.30;;;;;;491633;240;953;-77
2020/12/05 08:57:23;;;;;;;;;;;19.80;34.20;;;;;;491598;240;985;-77
2020/12/05 08:59:24;;;;;;;;;;;19.80;34.10;;;;;;491644;240;1302;-77
2020/12/05 09:01:26;;;;;;;;;;;19.80;34.10;;;;;;491580;240;965;-77
2020/12/05 09:03:27;;;;;;;;;;;19.80;34.10;;;;;;491618;240;1032;-77
2020/12/05 09:05:28;;;;;;;;;;;19.80;34.00;;;;;;491592;240;1051;-77
2020/12/05 09:07:29;;;;;;;;;;;19.70;34.10;;;;;;491536;240;1221;-77
2020/12/05 09:09:31;;;;;;;;;;;19.80;34.20;;;;;;491595;240;2195;-77
2020/12/05 09:11:32;;;;;;;;;;;19.70;34.10;;;;;;491605;240;1018;-77
2020/12/05 09:13:33;;;;;;;;;;;19.70;34.10;;;;;;491599;240;1202;-77
2020/12/05 09:15:35;;;;;;;;;;;19.70;34.20;;;;;;491558;240;1216;-77
2020/12/05 09:17:36;;;;;;;;;;;19.80;34.20;;;;;;491754;240;1042;-77
2020/12/05 09:19:37;;;;;;;;;;;19.70;34.10;;;;;;491627;240;949;-77
2020/12/05 09:21:38;;;;;;;;;;;19.70;34.10;;;;;;491575;240;1121;-77
2020/12/05 09:23:40;;;;;;;;;;;19.80;34.10;;;;;;491661;240;985;-77
2020/12/05 09:25:41;;;;;;;;;;;19.70;34.00;;;;;;491580;240;1358;-77
2020/12/05 09:27:42;;;;;;;;;;;19.70;34.00;;;;;;491658;240;948;-77
2020/12/05 09:29:44;;;;;;;;;;;19.80;34.10;;;;;;491663;240;2200;-77
2020/12/05 09:31:45;;;;;;;;;;;19.70;34.10;;;;;;491533;240;1108;-77
2020/12/05 09:33:46;;;;;;;;;;;19.70;34.10;;;;;;491613;240;947;-77
2020/12/05 09:35:48;;;;;;;;;;;19.80;34.10;;;;;;491551;240;1232;-77
2020/12/05 09:37:49;;;;;;;;;;;19.80;34.00;;;;;;491666;240;1931;-77
2020/12/05 09:39:50;;;;;;;;;;;19.80;34.00;;;;;;491552;240;1028;-77
2020/12/05 09:41:51;;;;;;;;;;;19.80;34.00;;;;;;491517;240;1134;-77
2020/12/05 09:43:52;;;;;;;;;;;19.70;34.10;;;;;;491571;240;1184;-77
2020/12/05 09:45:54;;;;;;;;;;;19.70;34.10;;;;;;491519;240;1258;-77
2020/12/05 09:47:55;;;;;;;;;;;19.70;34.10;;;;;;491576;240;1035;-77
2020/12/05 09:49:56;;;;;;;;;;;19.70;34.10;;;;;;491636;240;2185;-77
2020/12/05 09:51:58;;;;;;;;;;;19.70;34.20;;;;;;491655;240;1159;-77
2020/12/05 09:53:59;;;;;;;;;;;19.80;34.20;;;;;;491649;240;946;-77
2020/12/05 09:56:00;;;;;;;;;;;19.70;34.20;;;;;;491583;240;1303;-77
2020/12/05 09:58:02;;;;;;;;;;;19.80;34.10;;;;;;491654;240;992;-77
2020/12/05 10:00:03;;;;;;;;;;;19.80;34.10;;;;;;491582;240;1274;-77
2020/12/05 10:02:04;;;;;;;;;;;19.80;34.00;;;;;;491587;240;1108;-77
2020/12/05 10:04:05;;;;;;;;;;;19.80;34.10;;;;;;491568;240;947;-77
2020/12/05 10:06:07;;;;;;;;;;;19.90;34.00;;;;;;491488;240;1206;-77
2020/12/05 10:08:09;;;;;;;;;;;19.90;33.80;;;;;;491587;240;1057;-77
2020/12/05 10:10:09;;;;;;;;;;;19.90;33.80;;;;;;491660;240;2203;-77
2020/12/05 10:12:11;;;;;;;;;;;19.90;33.80;;;;;;491624;240;1120;-77
2020/12/05 10:14:12;;;;;;;;;;;19.90;33.80;;;;;;491667;240;1177;-77
2020/12/05 10:16:13;;;;;;;;;;;19.90;33.80;;;;;;491657;240;1187;-77
2020/12/05 10:18:14;;;;;;;;;;;19.80;33.90;;;;;;491594;240;1140;-77
2020/12/05 10:20:16;;;;;;;;;;;19.90;33.90;;;;;;491593;240;1265;-77
2020/12/05 10:22:17;;;;;;;;;;;19.90;34.00;;;;;;491536;240;1060;-77
2020/12/05 10:24:18;;;;;;;;;;;19.90;33.90;;;;;;491595;240;1012;-77
2020/12/05 10:26:20;;;;;;;;;;;19.90;33.80;;;;;;491569;240;962;-78
2020/12/05 10:28:21;;;;;;;;;;;19.90;34.00;;;;;;491596;240;1078;-77
2020/12/05 10:30:22;;;;;;;;;;;19.90;34.00;;;;;;491574;240;2176;-77
2020/12/05 10:32:23;;;;;;;;;;;19.90;33.90;;;;;;491589;240;1181;-77
2020/12/05 10:34:25;;;;;;;;;;;19.90;33.90;;;;;;491608;240;969;-77
2020/12/05 10:36:26;;;;;;;;;;;19.90;34.00;;;;;;491557;240;949;-77
2020/12/05 10:38:27;;;;;;;;;;;19.90;33.90;;;;;;491535;240;1110;-77
2020/12/05 10:40:28;;;;;;;;;;;19.90;33.90;;;;;;491580;240;1033;-77
2020/12/05 10:42:30;;;;;;;;;;;19.90;33.90;;;;;;491592;240;1184;-77
2020/12/05 10:44:31;;;;;;;;;;;19.80;33.90;;;;;;491589;240;1194;-77
2020/12/05 10:46:32;;;;;;;;;;;19.80;34.00;;;;;;491544;240;1202;-77
2020/12/05 10:48:34;;;;;;;;;;;19.80;34.10;;;;;;491628;240;1102;-77
2020/12/05 10:50:35;;;;;;;;;;;19.80;34.10;;;;;;491545;240;2184;-77
2020/12/05 10:52:36;;;;;;;;;;;19.80;34.10;;;;;;491633;240;918;-78
2020/12/05 10:54:37;;;;;;;;;;;19.80;34.20;;;;;;491660;240;1080;-77
2020/12/05 10:56:39;;;;;;;;;;;19.80;34.10;;;;;;491635;240;1161;-77
2020/12/05 10:58:40;;;;;;;;;;;19.90;34.10;;;;;;491646;240;949;-77
2020/12/05 11:00:41;;;;;;;;;;;19.90;33.90;;;;;;491590;240;1349;-77
2020/12/05 11:02:42;;;;;;;;;;;20.00;34.00;;;;;;491625;240;1092;-77
2020/12/05 11:04:44;;;;;;;;;;;20.00;33.90;;;;;;491617;240;937;-77
2020/12/05 11:06:45;;;;;;;;;;;19.90;33.90;;;;;;491612;240;978;-77
2020/12/05 11:08:46;;;;;;;;;;;20.00;33.90;;;;;;491561;240;1147;-77
2020/12/05 11:10:48;;;;;;;;;;;19.90;33.90;;;;;;491556;240;2187;-77
2020/12/05 11:12:49;;;;;;;;;;;19.90;34.00;;;;;;491561;240;1156;-77
2020/12/05 11:14:50;;;;;;;;;;;19.90;34.10;;;;;;491579;240;1162;-77
2020/12/05 11:16:51;;;;;;;;;;;20.00;34.00;;;;;;491572;240;1266;-77
2020/12/05 11:18:53;;;;;;;;;;;19.90;34.00;;;;;;491623;240;1083;-77
2020/12/05 11:20:54;;;;;;;;;;;20.00;34.00;;;;;;491592;240;1010;-77
2020/12/05 11:22:55;;;;;;;;;;;19.90;34.00;;;;;;491550;240;1229;-78
2020/12/05 11:24:57;;;;;;;;;;;20.00;34.00;;;;;;491565;240;1055;-77
2020/12/05 11:26:58;;;;;;;;;;;20.00;34.00;;;;;;491542;240;1136;-77
2020/12/05 11:28:59;;;;;;;;;;;20.00;34.00;;;;;;491521;240;1091;-77
2020/12/05 11:31:00;;;;;;;;;;;20.00;34.00;;;;;;491568;240;2195;-77
2020/12/05 11:33:02;;;;;;;;;;;20.00;34.00;;;;;;491451;240;1245;-77
2020/12/05 11:35:03;;;;;;;;;;;20.00;34.10;;;;;;491519;240;1112;-77
2020/12/05 11:37:04;;;;;;;;;;;19.90;34.20;;;;;;491674;240;1090;-77
2020/12/05 11:39:06;;;;;;;;;;;19.90;34.20;;;;;;491627;240;982;-77
2020/12/05 11:41:07;;;;;;;;;;;19.90;34.30;;;;;;491556;240;1101;-77
2020/12/05 11:43:08;;;;;;;;;;;19.90;34.30;;;;;;491604;240;1012;-77
2020/12/05 11:45:09;;;;;;;;;;;20.00;34.30;;;;;;491593;240;1163;-77
2020/12/05 11:47:11;;;;;;;;;;;19.90;34.20;;;;;;491616;240;1078;-77
2020/12/05 11:49:12;;;;;;;;;;;20.00;34.30;;;;;;491606;240;927;-77
2020/12/05 11:51:13;;;;;;;;;;;20.00;34.30;;;;;;491570;240;2184;-77
2020/12/05 11:53:14;;;;;;;;;;;19.90;34.30;;;;;;491623;240;1127;-77
2020/12/05 11:55:16;;;;;;;;;;;19.90;34.40;;;;;;491661;240;955;-77
2020/12/05 11:57:17;;;;;;;;;;;19.90;34.50;;;;;;491642;240;1259;-77
2020/12/05 11:59:18;;;;;;;;;;;19.90;34.40;;;;;;491607;240;1103;-77